createdAt,value
2022-11-13T00:02:22.183Z,35.03
2022-11-13T00:07:23.755Z,30.67
2022-11-13T00:12:25.293Z,29.77
2022-11-13T00:17:28.357Z,33.65
2022-11-13T00:22:29.817Z,31.80
2022-11-13T00:27:32.083Z,32.80
2022-11-13T00:32:33.639Z,30.95
2022-11-13T00:37:35.111Z,30.95
2022-11-13T00:42:36.586Z,32.50
2022-11-13T00:47:38.059Z,32.58
2022-11-13T00:52:39.520Z,27.50
2022-11-13T00:57:40.977Z,29.88
2022-11-13T01:02:42.480Z,30.67
2022-11-13T01:07:44.016Z,32.60
2022-11-13T01:12:45.509Z,27.40
2022-11-13T01:17:46.988Z,28.33
2022-11-13T01:22:48.541Z,31.08
2022-11-13T01:27:50.088Z,31.85
2022-11-13T01:32:51.629Z,30.23
2022-11-13T01:37:53.115Z,30.02
2022-11-13T01:42:54.584Z,29.42
2022-11-13T01:47:56.059Z,28.77
2022-11-13T01:52:57.516Z,29.65
2022-11-13T01:58:00.039Z,26.35
2022-11-13T02:03:01.793Z,27.40
2022-11-13T02:08:03.401Z,26.33
2022-11-13T02:13:05.410Z,27.60
2022-11-13T02:18:07.347Z,29.85
2022-11-13T02:23:19.832Z,27.65
2022-11-13T02:28:21.514Z,30.00
2022-11-13T02:33:26.919Z,32.58
2022-11-13T02:38:28.676Z,30.17
2022-11-13T02:43:30.433Z,32.00
2022-11-13T02:48:31.917Z,28.20
2022-11-13T02:53:33.456Z,27.08
2022-11-13T02:58:34.907Z,29.90
2022-11-13T03:08:57.785Z,29.20
2022-11-13T03:13:59.251Z,30.35
2022-11-13T03:19:00.715Z,31.50
2022-11-13T03:24:02.532Z,28.92
2022-11-13T03:29:04.046Z,27.70
2022-11-13T03:34:05.540Z,25.30
2022-11-13T03:39:07.028Z,31.05
2022-11-13T03:44:08.564Z,28.50
2022-11-13T03:49:10.029Z,28.88
2022-11-13T03:54:11.494Z,30.60
2022-11-13T03:59:12.973Z,30.10
2022-11-13T04:04:15.482Z,30.50
2022-11-13T04:09:16.982Z,27.13
2022-11-13T04:14:18.445Z,27.77
2022-11-13T04:19:19.911Z,27.50
2022-11-13T04:24:21.512Z,26.45
2022-11-13T04:29:22.955Z,25.25
2022-11-13T04:34:24.424Z,27.45
2022-11-13T04:39:25.896Z,30.15
2022-11-13T04:44:27.424Z,27.52
2022-11-13T04:49:28.919Z,27.60
2022-11-13T04:54:30.392Z,31.92
2022-11-13T04:59:32.027Z,30.75
2022-11-13T05:04:33.590Z,33.63
2022-11-13T05:09:35.096Z,29.65
2022-11-13T05:14:40.560Z,29.77
2022-11-13T05:19:42.050Z,27.15
2022-11-13T05:24:43.555Z,28.75
2022-11-13T05:29:45.119Z,28.75
2022-11-13T05:34:46.596Z,30.90
2022-11-13T05:39:48.046Z,25.92
2022-11-13T05:44:49.498Z,27.95
2022-11-13T05:49:50.968Z,26.67
2022-11-13T05:54:52.460Z,30.70
2022-11-13T05:59:53.938Z,29.20
2022-11-13T06:04:56.501Z,30.38
2022-11-13T06:09:58.173Z,28.48
2022-11-13T06:14:59.626Z,29.60
2022-11-13T06:20:01.102Z,26.08
2022-11-13T06:25:02.555Z,35.65
2022-11-13T06:30:04.429Z,26.67
2022-11-13T06:35:06.095Z,30.65
2022-11-13T06:40:08.309Z,30.25
2022-11-13T06:45:10.199Z,33.78
2022-11-13T06:50:11.756Z,32.83
2022-11-13T06:55:13.310Z,30.17
2022-11-13T07:00:15.337Z,32.17
2022-11-13T07:05:17.800Z,28.67
2022-11-13T07:10:19.262Z,25.13
2022-11-13T07:15:20.729Z,28.23
2022-11-13T07:20:22.203Z,25.05
2022-11-13T07:25:24.027Z,23.38
2022-11-13T07:30:26.200Z,23.52
2022-11-13T07:35:27.763Z,21.48
2022-11-13T07:40:29.308Z,20.55
2022-11-13T07:45:30.859Z,20.25
2022-11-13T07:50:36.763Z,21.85
2022-11-13T07:55:38.620Z,20.52
2022-11-13T08:00:40.226Z,16.73
2022-11-13T08:05:42.195Z,19.83
2022-11-13T08:10:45.160Z,20.42
2022-11-13T08:15:46.645Z,17.58
2022-11-13T08:20:48.123Z,17.83
2022-11-13T08:25:49.760Z,15.82
2022-11-13T08:30:51.197Z,15.05
2022-11-13T08:35:57.753Z,17.23
2022-11-13T08:41:03.262Z,17.15
2022-11-13T08:46:08.899Z,17.02
2022-11-13T08:51:10.401Z,14.43
2022-11-13T08:56:11.980Z,15.57
2022-11-13T09:01:13.509Z,12.23
2022-11-13T09:06:15.282Z,11.77
2022-11-13T09:11:17.247Z,16.00
2022-11-13T09:16:18.744Z,12.88
2022-11-13T09:21:20.255Z,14.07
2022-11-13T09:26:21.809Z,14.93
2022-11-13T09:31:23.300Z,13.85
2022-11-13T09:36:24.793Z,15.70
2022-11-13T09:41:29.592Z,11.13
2022-11-13T09:46:52.898Z,12.82
2022-11-13T09:51:58.520Z,11.60
2022-11-13T09:57:19.362Z,13.37
2022-11-13T10:02:33.731Z,14.23
2022-11-13T10:07:41.095Z,11.20
2022-11-13T10:12:44.493Z,11.40
2022-11-13T10:17:56.808Z,10.77
2022-11-13T10:23:12.745Z,11.65
2022-11-13T10:33:48.654Z,10.52
2022-11-13T10:38:58.451Z,11.13
2022-11-13T10:44:21.013Z,11.35
2022-11-13T10:49:29.037Z,10.93
2022-11-13T10:54:32.398Z,10.10
2022-11-13T10:59:45.126Z,11.63
2022-11-13T11:04:46.702Z,12.55
2022-11-13T11:09:50.750Z,11.75
2022-11-13T11:15:00.986Z,10.68
2022-11-13T11:20:29.336Z,14.02
2022-11-13T11:25:40.744Z,12.55
2022-11-13T11:30:51.428Z,10.93
2022-11-13T11:36:02.361Z,8.55
2022-11-13T11:41:15.985Z,13.00
2022-11-13T11:46:23.795Z,11.32
2022-11-13T11:51:38.496Z,9.45
2022-11-13T11:56:49.031Z,9.70
2022-11-13T12:01:59.306Z,8.32
2022-11-13T12:07:22.205Z,11.02
2022-11-13T12:12:49.790Z,8.15
2022-11-13T12:18:14.921Z,9.25
2022-11-13T12:23:22.122Z,6.93
2022-11-13T12:28:41.161Z,8.93
2022-11-13T12:34:01.083Z,8.10
2022-11-13T12:39:31.017Z,6.63
2022-11-13T12:44:44.928Z,8.15
2022-11-13T12:49:46.422Z,8.38
2022-11-13T12:54:47.993Z,10.43
2022-11-13T12:59:57.196Z,8.23
2022-11-13T13:05:13.876Z,10.02
2022-11-13T13:10:34.805Z,11.52
2022-11-13T13:15:38.873Z,9.77
2022-11-13T13:20:46.196Z,11.43
2022-11-13T13:25:47.704Z,10.55
2022-11-13T13:30:58.168Z,8.70
2022-11-13T13:36:24.752Z,9.38
2022-11-13T13:41:42.588Z,8.80
2022-11-13T13:51:49.217Z,8.88
2022-11-13T13:56:50.937Z,8.15
2022-11-13T14:01:58.548Z,14.77
2022-11-13T14:07:02.050Z,8.55
2022-11-13T14:12:17.176Z,12.15
2022-11-13T14:17:24.408Z,9.95
2022-11-13T14:22:26.822Z,8.18
2022-11-13T14:27:29.044Z,8.90
2022-11-13T14:32:33.328Z,11.85
2022-11-13T14:37:39.670Z,10.05
2022-11-13T14:42:46.641Z,12.77
2022-11-13T14:47:58.076Z,13.93
2022-11-13T14:53:07.880Z,13.15
2022-11-13T14:58:14.682Z,19.85
2022-11-13T15:03:16.353Z,13.17
2022-11-13T15:08:17.899Z,14.00
2022-11-13T15:13:19.501Z,9.55
2022-11-13T15:18:21.033Z,11.85
2022-11-13T15:23:25.378Z,11.32
2022-11-13T15:28:26.985Z,11.93
2022-11-13T15:33:28.775Z,9.80
2022-11-13T15:38:30.482Z,12.35
2022-11-13T15:43:32.133Z,15.68
2022-11-13T15:48:33.721Z,14.20
2022-11-13T15:53:35.275Z,13.30
2022-11-13T15:58:36.853Z,42.83
2022-11-13T16:03:40.265Z,17.45
2022-11-13T16:08:43.436Z,11.13
2022-11-13T16:13:46.437Z,14.40
2022-11-13T16:18:50.168Z,10.27
2022-11-13T16:23:51.710Z,9.65
2022-11-13T16:34:16.426Z,8.57
2022-11-13T16:39:18.221Z,10.40
2022-11-13T16:44:19.691Z,12.20
2022-11-13T16:49:21.136Z,36.28
2022-11-13T16:54:22.621Z,26.25
2022-11-13T16:59:24.143Z,13.20
2022-11-13T17:04:26.716Z,14.10
2022-11-13T17:09:29.268Z,11.85
2022-11-13T17:14:30.719Z,10.50
2022-11-13T17:19:32.363Z,13.80
2022-11-13T17:24:33.847Z,15.05
2022-11-13T17:29:35.315Z,15.32
2022-11-13T17:34:36.795Z,39.80
2022-11-13T17:39:38.290Z,13.95
2022-11-13T17:44:39.809Z,12.65
2022-11-13T17:49:41.294Z,11.50
2022-11-13T17:54:42.799Z,12.20
2022-11-13T17:59:44.249Z,10.73
2022-11-13T18:04:45.769Z,8.80
2022-11-13T18:09:48.248Z,10.13
2022-11-13T18:14:52.588Z,12.30
2022-11-13T18:20:00.398Z,26.08
2022-11-13T18:25:03.558Z,14.48
2022-11-13T18:30:05.603Z,28.73
2022-11-13T18:35:07.556Z,9.18
2022-11-13T18:40:09.752Z,10.30
2022-11-13T18:45:11.860Z,14.25
2022-11-13T18:50:13.378Z,11.45
2022-11-13T18:55:14.909Z,9.68
2022-11-13T19:00:17.412Z,11.13
2022-11-13T19:05:18.883Z,10.23
2022-11-13T19:10:20.455Z,16.50
2022-11-13T19:15:22.054Z,10.40
2022-11-13T19:20:23.608Z,13.23
2022-11-13T19:25:26.216Z,12.38
2022-11-13T19:30:27.695Z,16.00
2022-11-13T19:35:29.252Z,9.98
2022-11-13T19:40:30.793Z,9.57
2022-11-13T19:45:32.448Z,14.70
2022-11-13T19:50:33.934Z,11.32
2022-11-13T19:55:35.586Z,12.15
2022-11-13T20:00:37.293Z,12.23
2022-11-13T20:05:44.321Z,13.52
2022-11-13T20:10:45.759Z,11.93
2022-11-13T20:15:54.679Z,11.77
2022-11-13T20:20:56.523Z,16.15
2022-11-13T20:25:59.981Z,14.77
2022-11-13T20:31:05.684Z,12.77
2022-11-13T20:36:07.483Z,12.15
2022-11-13T20:41:11.322Z,16.23
2022-11-13T20:46:14.731Z,14.35
2022-11-13T20:51:21.551Z,15.35
2022-11-13T20:56:25.169Z,20.10
2022-11-13T21:01:26.840Z,16.27
2022-11-13T21:06:28.421Z,15.10
2022-11-13T21:11:29.937Z,16.40
2022-11-13T21:16:31.772Z,14.48
2022-11-13T21:21:33.285Z,16.58
2022-11-13T21:26:34.768Z,16.33
2022-11-13T21:31:36.265Z,17.98
2022-11-13T21:36:37.768Z,16.90
2022-11-13T21:41:39.250Z,19.85
2022-11-13T21:46:45.601Z,18.00
2022-11-13T21:51:47.052Z,17.73
2022-11-13T21:56:48.538Z,20.17
2022-11-13T22:01:50.235Z,20.08
2022-11-13T22:06:52.617Z,18.92
2022-11-13T22:11:54.165Z,21.35
2022-11-13T22:16:55.638Z,20.27
2022-11-13T22:21:57.127Z,21.85
2022-11-13T22:26:58.597Z,22.63
2022-11-13T22:32:00.050Z,21.27
2022-11-13T22:37:01.518Z,23.45
2022-11-13T22:42:03.003Z,22.58
2022-11-13T22:47:04.553Z,28.77
2022-11-13T22:52:06.040Z,25.25
2022-11-13T22:57:07.521Z,29.80
2022-11-13T23:02:08.995Z,32.97
2022-11-13T23:07:10.510Z,33.10
2022-11-13T23:12:11.982Z,30.15
2022-11-13T23:17:13.456Z,31.38
2022-11-13T23:22:14.953Z,34.58
2022-11-13T23:27:16.447Z,42.28
2022-11-13T23:32:17.931Z,47.83
2022-11-13T23:37:19.404Z,41.47
2022-11-13T23:42:39.285Z,42.08
2022-11-13T23:47:43.535Z,45.65
2022-11-13T23:52:45.072Z,48.67
2022-11-13T23:57:46.970Z,48.90
